Time;durP1;ratioP1;P1;durP2;ratioP2;P2;SDS_P1;SDS_P2;PMS_P1;PMS_P2;Temp;Humidity;BMP_temperature;BMP_pressure;BME280_temperature;BME280_humidity;BME280_pressure;Samples;Min_cycle;Max_cycle;Signal;HPM_P1;HPM_P2
2022/07/01 00:00:47;;;;;;;4.25;2.00;;;23.10;57.10;;;;;;5011928;28;20039;-72
2022/07/01 00:03:13;;;;;;;3.75;2.00;;;23.10;57.40;;;;;;5016424;28;20032;-72
2022/07/01 00:05:38;;;;;;;3.42;2.20;;;23.00;57.40;;;;;;5037356;28;20159;-71
2022/07/01 00:08:04;;;;;;;5.70;2.75;;;22.90;57.80;;;;;;5037379;28;20036;-74
2022/07/01 00:10:30;;;;;;;4.00;2.35;;;22.80;57.80;;;;;;5034858;28;20029;-74
2022/07/01 00:12:55;;;;;;;2.45;1.83;;;22.70;57.90;;;;;;5038851;28;20029;-75
2022/07/01 00:15:22;;;;;;;3.53;1.98;;;22.70;58.10;;;;;;4997518;28;20548;-74
2022/07/01 00:17:47;;;;;;;2.33;2.13;;;22.60;58.10;;;;;;5008516;28;20436;-75
2022/07/01 00:20:14;;;;;;;5.53;2.08;;;22.60;58.30;;;;;;5018520;28;20025;-74
2022/07/01 00:22:40;;;;;;;3.13;1.60;;;22.50;58.40;;;;;;5029937;28;20528;-74
2022/07/01 00:25:06;;;;;;;2.63;1.80;;;22.40;58.50;;;;;;5037851;28;20045;-74
2022/07/01 00:27:32;;;;;;;4.30;1.77;;;22.30;58.70;;;;;;5035731;28;20497;-71
2022/07/01 00:29:58;;;;;;;9.23;1.83;;;22.10;58.80;;;;;;5033304;28;20126;-71
2022/07/01 00:32:23;;;;;;;4.78;2.10;;;22.00;59.00;;;;;;5041810;28;20378;-72
2022/07/01 00:34:49;;;;;;;4.88;1.70;;;21.90;59.10;;;;;;5028499;28;20378;-71
2022/07/01 00:37:14;;;;;;;2.78;1.60;;;21.90;59.20;;;;;;5032882;28;20115;-71
2022/07/01 00:39:40;;;;;;;2.95;1.77;;;21.80;59.10;;;;;;5042129;28;20036;-71
2022/07/01 00:42:05;;;;;;;1.90;1.20;;;21.80;59.20;;;;;;5028706;28;20441;-71
2022/07/01 00:44:31;;;;;;;1.58;1.30;;;21.80;59.10;;;;;;5012112;28;20049;-71
2022/07/01 00:46:58;;;;;;;5.22;1.70;;;21.70;59.10;;;;;;5016990;28;20037;-72
2022/07/01 00:49:23;;;;;;;2.92;1.50;;;21.70;59.10;;;;;;5016065;28;20043;-71
2022/07/01 00:51:49;;;;;;;2.97;1.33;;;21.70;59.20;;;;;;5010347;28;20041;-71
2022/07/01 00:54:15;;;;;;;1.33;1.23;;;21.60;59.30;;;;;;5021932;28;20037;-72
2022/07/01 00:56:40;;;;;;;2.42;1.38;;;21.50;59.20;;;;;;5013514;28;20052;-71
2022/07/01 00:59:06;;;;;;;1.85;1.30;;;21.60;59.90;;;;;;5011105;28;20037;-71
2022/07/01 01:01:31;;;;;;;3.67;1.15;;;21.60;59.20;;;;;;5019483;28;20040;-72
2022/07/01 01:03:57;;;;;;;1.92;0.93;;;21.60;59.10;;;;;;5033869;28;20045;-72
2022/07/01 01:06:22;;;;;;;1.42;0.93;;;21.60;59.00;;;;;;5024703;28;20034;-71
2022/07/01 01:08:48;;;;;;;4.68;1.00;;;21.50;58.90;;;;;;4985589;28;20041;-74
2022/07/01 01:11:15;;;;;;;3.95;0.90;;;21.40;58.80;;;;;;5006919;28;20045;-74
2022/07/01 01:13:40;;;;;;;1.08;0.70;;;21.40;58.80;;;;;;5030385;28;20769;-75
2022/07/01 01:16:07;;;;;;;2.17;0.80;;;21.40;58.80;;;;;;5002002;28;20038;-74
2022/07/01 01:18:33;;;;;;;2.72;0.75;;;21.40;58.70;;;;;;5006685;28;20036;-74
2022/07/01 01:20:59;;;;;;;4.28;0.80;;;21.40;58.60;;;;;;5034767;28;20052;-74
2022/07/01 01:23:24;;;;;;;3.05;0.60;;;21.30;58.50;;;;;;5013839;28;20037;-75
2022/07/01 01:25:50;;;;;;;1.25;0.60;;;21.30;58.40;;;;;;5007087;28;20036;-75
2022/07/01 01:28:15;;;;;;;1.17;0.70;;;21.20;58.40;;;;;;5013293;28;20034;-75
2022/07/01 01:30:41;;;;;;;1.65;0.50;;;21.20;58.40;;;;;;5005833;28;20029;-75
2022/07/01 01:33:11;;;;;;;1.13;0.65;;;21.10;58.40;;;;;;5005324;28;20121;-74
2022/07/01 01:35:37;;;;;;;2.00;0.45;;;21.10;58.60;;;;;;5024627;28;20031;-74
2022/07/01 01:38:02;;;;;;;1.00;0.57;;;21.10;58.50;;;;;;5002099;28;20429;-71
2022/07/01 01:40:28;;;;;;;1.92;0.60;;;21.10;58.60;;;;;;5000044;28;20025;-71
2022/07/01 01:42:53;;;;;;;0.63;0.60;;;21.00;58.60;;;;;;5022385;28;20059;-71
2022/07/01 01:45:19;;;;;;;1.92;0.55;;;21.00;58.70;;;;;;4994981;28;20045;-71
2022/07/01 01:47:44;;;;;;;1.23;0.60;;;21.00;58.80;;;;;;5013962;28;20029;-72
2022/07/01 01:50:11;;;;;;;0.80;0.40;;;21.00;59.00;;;;;;5036676;28;20516;-72
2022/07/01 01:52:38;;;;;;;2.17;0.50;;;20.90;59.20;;;;;;5010324;28;20114;-72
2022/07/01 01:55:04;;;;;;;1.52;0.63;;;20.80;59.30;;;;;;5011389;28;20033;-72
2022/07/01 01:57:30;;;;;;;1.15;0.60;;;20.80;59.50;;;;;;5004235;28;20048;-71
2022/07/01 01:59:55;;;;;;;0.75;0.50;;;20.70;59.70;;;;;;5002109;28;20410;-71
2022/07/01 02:02:21;;;;;;;1.05;0.40;;;20.60;60.10;;;;;;4995072;28;20041;-72
2022/07/01 02:04:46;;;;;;;0.40;0.30;;;20.50;60.30;;;;;;5017846;28;20080;-72
2022/07/01 02:07:12;;;;;;;3.20;0.40;;;20.50;60.70;;;;;;5027075;28;20041;-71
2022/07/01 02:09:37;;;;;;;2.35;0.40;;;20.50;60.70;;;;;;5030884;28;20033;-71
2022/07/01 02:12:04;;;;;;;0.30;0.30;;;20.40;60.90;;;;;;4999798;28;20037;-72
2022/07/01 02:14:29;;;;;;;2.88;0.40;;;20.30;61.10;;;;;;5012011;28;20041;-71
2022/07/01 02:16:55;;;;;;;0.95;0.30;;;20.20;61.10;;;;;;4992128;28;20065;-71
2022/07/01 02:19:20;;;;;;;0.68;0.38;;;20.10;61.40;;;;;;5000690;28;20510;-71
2022/07/01 02:21:46;;;;;;;0.35;0.30;;;20.00;61.60;;;;;;5033063;28;20037;-71
2022/07/01 02:24:11;;;;;;;0.55;0.40;;;20.00;62.00;;;;;;5033227;28;20059;-72
2022/07/01 02:26:37;;;;;;;0.40;0.40;;;19.90;63.00;;;;;;5029552;28;20605;-72
2022/07/01 02:29:03;;;;;;;0.52;0.40;;;19.90;62.40;;;;;;5008346;28;20063;-72
2022/07/01 02:31:28;;;;;;;0.70;0.40;;;19.80;62.50;;;;;;4993721;28;20493;-71
2022/07/01 02:33:54;;;;;;;0.60;0.30;;;19.80;62.60;;;;;;5012422;28;20083;-71
2022/07/01 02:36:19;;;;;;;1.02;0.38;;;19.80;62.90;;;;;;5022754;28;20085;-71
2022/07/01 02:38:45;;;;;;;1.40;0.40;;;19.80;62.90;;;;;;5031618;28;20123;-72
2022/07/01 02:41:10;;;;;;;0.82;0.30;;;19.70;62.90;;;;;;5024888;28;20041;-72
2022/07/01 02:43:36;;;;;;;0.80;0.50;;;19.70;63.20;;;;;;5032504;28;20041;-70
2022/07/01 02:46:02;;;;;;;1.63;0.50;;;19.70;63.30;;;;;;5031246;28;20047;-71
2022/07/01 02:48:27;;;;;;;0.85;0.47;;;19.70;63.40;;;;;;5036692;28;20037;-71
2022/07/01 02:50:53;;;;;;;0.43;0.38;;;19.60;63.50;;;;;;5030880;28;20037;-70
2022/07/01 02:53:18;;;;;;;2.13;0.50;;;19.60;63.50;;;;;;5037096;28;20038;-71
2022/07/01 02:55:44;;;;;;;0.47;0.40;;;19.60;63.60;;;;;;5049158;28;20028;-70
2022/07/01 02:58:09;;;;;;;0.30;0.30;;;19.50;63.70;;;;;;5046467;28;22313;-71
2022/07/01 03:00:35;;;;;;;0.93;0.47;;;19.40;63.90;;;;;;5025399;28;20039;-71
2022/07/01 03:03:00;;;;;;;0.90;0.73;;;19.40;64.00;;;;;;5021269;28;20025;-71
2022/07/01 03:05:26;;;;;;;0.38;0.30;;;19.40;64.30;;;;;;5049862;28;20036;-70
2022/07/01 03:07:51;;;;;;;1.10;0.30;;;19.40;64.40;;;;;;5051769;28;20036;-70
2022/07/01 03:10:17;;;;;;;0.40;0.40;;;19.30;64.50;;;;;;5020993;28;20018;-70
2022/07/01 03:12:42;;;;;;;1.17;0.50;;;19.40;64.80;;;;;;5041323;28;20032;-69
2022/07/01 03:15:12;;;;;;;1.58;0.30;;;19.40;64.90;;;;;;5046242;28;20037;-70
2022/07/01 03:17:40;;;;;;;0.30;0.28;;;19.40;65.10;;;;;;5037028;28;20572;-70
2022/07/01 03:20:08;;;;;;;1.23;0.50;;;19.30;65.00;;;;;;5030526;28;20063;-71
2022/07/01 03:22:34;;;;;;;0.98;0.47;;;19.40;65.20;;;;;;5029057;28;20032;-72
2022/07/01 03:25:00;;;;;;;0.82;0.30;;;19.40;65.30;;;;;;5030345;28;20409;-70
2022/07/01 03:27:26;;;;;;;1.95;0.38;;;19.40;65.20;;;;;;5046077;28;20092;-70
2022/07/01 03:29:51;;;;;;;0.30;0.30;;;19.40;65.20;;;;;;5027433;28;20139;-70
2022/07/01 03:32:17;;;;;;;0.30;0.30;;;19.40;65.30;;;;;;5030892;28;20057;-73
2022/07/01 03:34:44;;;;;;;1.02;0.55;;;19.40;65.20;;;;;;5028163;28;20074;-73
2022/07/01 03:37:10;;;;;;;0.20;0.20;;;19.40;65.20;;;;;;5022639;28;20036;-75
2022/07/01 03:39:36;;;;;;;0.60;0.40;;;19.40;65.10;;;;;;5039030;28;20036;-75
2022/07/01 03:42:03;;;;;;;0.32;0.20;;;19.40;65.20;;;;;;5031609;28;20496;-73
2022/07/01 03:44:28;;;;;;;0.73;0.30;;;19.40;65.20;;;;;;5015031;28;20093;-71
2022/07/01 03:46:54;;;;;;;0.30;0.30;;;19.40;65.10;;;;;;5007793;28;20044;-70
2022/07/01 03:49:20;;;;;;;0.40;0.30;;;19.40;65.10;;;;;;5002467;28;20037;-70
2022/07/01 03:51:46;;;;;;;0.90;0.30;;;19.40;65.10;;;;;;5020045;28;20035;-74
2022/07/01 03:54:30;;;;;;;0.52;0.52;;;19.40;65.10;;;;;;5027749;28;20036;-73
2022/07/01 03:57:04;;;;;;;1.38;0.20;;;19.40;65.10;;;;;;5036242;28;20124;-73
2022/07/01 03:59:32;;;;;;;1.05;0.40;;;19.30;65.30;;;;;;5026382;28;20247;-73
2022/07/01 04:01:58;;;;;;;2.60;0.30;;;19.20;65.40;;;;;;5032269;28;20102;-73
2022/07/01 04:04:24;;;;;;;1.38;0.35;;;19.10;65.50;;;;;;5016996;28;20040;-73
2022/07/01 04:06:49;;;;;;;0.57;0.43;;;19.10;65.80;;;;;;5027166;28;20060;-72
2022/07/01 04:09:15;;;;;;;1.88;0.50;;;19.00;65.80;;;;;;5023504;28;20041;-73
2022/07/01 04:11:42;;;;;;;0.90;0.28;;;19.00;66.10;;;;;;5019898;28;20033;-73
2022/07/01 04:14:09;;;;;;;0.55;0.30;;;19.00;66.30;;;;;;5031676;28;20084;-72
2022/07/01 04:16:34;;;;;;;0.77;0.30;;;18.90;66.30;;;;;;5028149;28;20061;-70
2022/07/01 04:19:00;;;;;;;1.77;0.38;;;18.90;66.50;;;;;;5029507;28;20157;-70
2022/07/01 04:24:09;;;;;;;0.30;0.30;;;18.90;66.70;;;;;;5040018;28;20093;-70
2022/07/01 04:26:35;;;;;;;0.85;0.50;;;18.80;66.60;;;;;;5035734;28;20037;-69
2022/07/01 04:29:00;;;;;;;0.40;0.40;;;18.80;66.80;;;;;;5027562;28;20043;-69
2022/07/01 04:31:26;;;;;;;0.43;0.43;;;18.80;67.00;;;;;;4999374;28;20216;-70
2022/07/01 04:33:51;;;;;;;0.40;0.40;;;18.80;67.10;;;;;;5032172;28;20127;-70
2022/07/01 04:36:17;;;;;;;1.00;0.52;;;18.70;67.00;;;;;;5009291;28;20033;-70
2022/07/01 04:38:43;;;;;;;2.25;0.40;;;18.70;67.20;;;;;;5037621;28;20037;-69
2022/07/01 04:43:53;;;;;;;1.08;0.50;;;18.60;67.40;;;;;;5034616;28;20413;-70
2022/07/01 04:46:18;;;;;;;3.33;0.68;;;18.60;67.60;;;;;;5028041;28;20030;-71
2022/07/01 04:48:44;;;;;;;0.40;0.40;;;18.60;67.60;;;;;;5030940;28;20409;-70
2022/07/01 04:51:09;;;;;;;0.60;0.60;;;18.50;67.70;;;;;;5020180;28;20056;-71
2022/07/01 04:53:35;;;;;;;0.75;0.75;;;18.40;67.80;;;;;;5031389;28;20063;-71
2022/07/01 04:56:00;;;;;;;1.17;0.98;;;18.40;68.10;;;;;;5026956;28;20115;-70
2022/07/01 04:58:26;;;;;;;1.55;0.98;;;18.40;68.40;;;;;;5028194;28;20045;-70
2022/07/01 05:00:52;;;;;;;0.90;0.70;;;18.40;68.60;;;;;;5026803;28;20033;-71
2022/07/01 05:03:17;;;;;;;1.10;1.00;;;18.40;68.70;;;;;;5022317;28;20106;-70
2022/07/01 05:05:43;;;;;;;1.30;0.95;;;18.30;68.60;;;;;;5046366;28;20041;-70
2022/07/01 05:08:08;;;;;;;1.42;0.90;;;18.30;68.60;;;;;;5017836;28;20029;-70
2022/07/01 05:10:34;;;;;;;0.85;0.85;;;18.30;68.50;;;;;;5010803;28;20049;-71
2022/07/01 05:12:59;;;;;;;1.05;0.95;;;18.30;68.60;;;;;;5036326;28;20108;-70
2022/07/01 05:15:25;;;;;;;4.60;1.17;;;18.20;68.50;;;;;;5012271;28;20055;-70
2022/07/01 05:23:19;;;;;;;1.10;1.00;;;18.10;69.00;;;;;;5031560;28;20035;-70
2022/07/01 05:25:44;;;;;;;1.00;0.90;;;18.20;69.10;;;;;;5034796;28;20033;-71
2022/07/01 05:28:10;;;;;;;1.35;1.00;;;18.10;69.00;;;;;;5035281;28;20051;-70
2022/07/01 05:30:35;;;;;;;1.98;1.02;;;18.20;68.90;;;;;;5036320;28;20032;-70
2022/07/01 05:33:01;;;;;;;1.15;1.05;;;18.20;69.80;;;;;;5023232;28;20040;-70
2022/07/01 05:35:26;;;;;;;2.45;1.02;;;18.20;68.90;;;;;;5039286;28;20049;-71
2022/07/01 05:37:52;;;;;;;1.25;0.95;;;18.20;68.90;;;;;;5012217;28;20033;-71
2022/07/01 05:40:17;;;;;;;2.75;1.40;;;18.20;68.90;;;;;;5034516;28;20563;-70
2022/07/01 05:42:43;;;;;;;0.80;0.80;;;18.20;68.90;;;;;;5035858;28;20053;-71
2022/07/01 05:45:09;;;;;;;1.17;1.00;;;18.20;69.00;;;;;;5045327;28;20650;-70
2022/07/01 05:47:35;;;;;;;1.75;1.30;;;18.20;69.00;;;;;;5032467;28;20520;-71
2022/07/01 05:50:00;;;;;;;1.05;0.90;;;18.20;69.00;;;;;;5031493;28;20040;-70
2022/07/01 05:52:26;;;;;;;2.20;1.80;;;18.20;69.10;;;;;;5028261;28;20109;-70
2022/07/01 05:54:51;;;;;;;1.38;1.23;;;18.20;69.00;;;;;;5021116;28;20090;-70
2022/07/01 05:57:17;;;;;;;1.65;1.50;;;18.20;69.10;;;;;;5017146;28;20119;-71
2022/07/01 05:59:42;;;;;;;5.47;1.73;;;18.20;69.10;;;;;;5025781;28;20545;-71
2022/07/01 06:02:08;;;;;;;1.38;1.27;;;18.20;69.10;;;;;;5031462;28;20039;-71
2022/07/01 06:04:33;;;;;;;1.80;1.38;;;18.20;69.10;;;;;;5035736;28;20544;-70
2022/07/01 06:06:59;;;;;;;2.30;1.75;;;18.20;69.20;;;;;;5022468;28;20065;-70
2022/07/01 06:09:25;;;;;;;2.50;1.60;;;18.20;69.00;;;;;;5034268;28;20049;-70
2022/07/01 06:11:50;;;;;;;9.85;1.60;;;18.20;69.20;;;;;;5016651;28;20043;-70
2022/07/01 06:14:16;;;;;;;6.43;1.60;;;18.20;69.10;;;;;;5048077;28;20043;-70
2022/07/01 06:16:41;;;;;;;2.72;1.20;;;18.20;69.10;;;;;;5025934;28;20736;-70
2022/07/01 06:19:07;;;;;;;2.28;1.67;;;18.20;69.10;;;;;;5036857;28;20052;-71
2022/07/01 06:21:32;;;;;;;1.50;1.40;;;18.20;69.00;;;;;;5008957;28;20049;-71
2022/07/01 06:23:58;;;;;;;2.70;1.50;;;18.20;69.10;;;;;;5039025;28;20796;-71
2022/07/01 06:26:24;;;;;;;4.55;1.48;;;18.20;69.10;;;;;;5023843;28;20028;-71
2022/07/01 06:28:49;;;;;;;2.85;1.20;;;18.20;69.20;;;;;;5036698;28;20052;-70
2022/07/01 06:31:15;;;;;;;1.70;1.23;;;18.20;69.10;;;;;;5034445;28;20045;-71
2022/07/01 06:33:40;;;;;;;2.03;1.20;;;18.20;69.20;;;;;;5047416;28;20059;-70
2022/07/01 06:36:06;;;;;;;2.90;1.17;;;18.20;69.10;;;;;;5041414;28;22639;-71
2022/07/01 06:38:31;;;;;;;1.40;1.00;;;18.20;68.90;;;;;;5041854;28;20463;-71
2022/07/01 06:43:43;;;;;;;1.63;1.45;;;18.30;68.90;;;;;;5029956;28;20093;-70
2022/07/01 06:46:08;;;;;;;1.60;1.15;;;18.30;68.90;;;;;;5055768;28;20128;-70
2022/07/01 06:48:35;;;;;;;1.40;1.23;;;18.30;68.80;;;;;;4983330;28;20120;-70
2022/07/01 06:51:01;;;;;;;2.33;1.20;;;18.30;68.90;;;;;;5015226;28;20685;-71
2022/07/01 06:53:26;;;;;;;1.00;0.90;;;18.20;68.90;;;;;;5032360;28;20037;-70
2022/07/01 06:55:52;;;;;;;2.03;1.10;;;18.20;69.10;;;;;;5030528;28;20063;-70
2022/07/01 06:58:18;;;;;;;1.63;0.90;;;18.20;69.10;;;;;;5041742;28;20024;-70
2022/07/01 07:00:43;;;;;;;2.20;1.83;;;18.20;69.20;;;;;;5001659;28;21706;-70
2022/07/01 07:03:09;;;;;;;1.33;0.82;;;18.20;69.10;;;;;;4998573;28;20491;-70
2022/07/01 07:05:34;;;;;;;1.65;1.05;;;18.20;69.90;;;;;;5029793;28;20444;-71
2022/07/01 07:08:00;;;;;;;1.58;0.80;;;18.30;69.10;;;;;;5016132;28;20715;-72
2022/07/01 07:10:25;;;;;;;1.67;1.35;;;18.30;69.00;;;;;;5029457;28;20615;-71
2022/07/01 07:12:51;;;;;;;1.88;0.70;;;18.30;69.00;;;;;;5046456;28;20123;-71
2022/07/01 07:15:16;;;;;;;3.60;0.82;;;18.30;68.80;;;;;;5051426;28;20111;-73
2022/07/01 07:17:42;;;;;;;3.00;0.80;;;18.40;68.80;;;;;;5013356;28;20036;-74
2022/07/01 07:20:08;;;;;;;1.10;0.50;;;18.40;68.90;;;;;;5035355;28;20504;-74
2022/07/01 07:22:33;;;;;;;0.93;0.70;;;18.40;68.90;;;;;;5031748;28;20033;-73
2022/07/01 07:24:59;;;;;;;0.80;0.80;;;18.40;68.80;;;;;;5028628;28;20545;-71
2022/07/01 07:27:24;;;;;;;1.50;0.70;;;18.40;68.70;;;;;;5031576;28;20032;-71
2022/07/01 07:29:50;;;;;;;1.70;0.85;;;18.40;68.60;;;;;;5032785;28;20033;-73
2022/07/01 07:32:16;;;;;;;1.58;0.80;;;18.40;68.60;;;;;;5014058;28;20047;-72
2022/07/01 07:34:41;;;;;;;1.02;0.80;;;18.40;69.00;;;;;;5023498;28;20052;-71
2022/07/01 07:37:07;;;;;;;1.67;0.98;;;18.40;68.70;;;;;;5019322;28;20420;-72
2022/07/01 07:39:32;;;;;;;1.52;0.80;;;18.40;68.70;;;;;;5016190;28;20492;-71
2022/07/01 07:41:58;;;;;;;1.38;0.90;;;18.40;68.70;;;;;;5035929;28;22916;-71
2022/07/01 07:44:23;;;;;;;1.38;1.10;;;18.40;68.60;;;;;;5031486;28;20052;-73
2022/07/01 07:46:49;;;;;;;2.10;0.73;;;18.40;68.60;;;;;;5004949;28;20041;-72
2022/07/01 07:49:14;;;;;;;1.63;0.85;;;18.40;68.60;;;;;;5031110;28;20563;-71
2022/07/01 07:51:40;;;;;;;1.63;1.00;;;18.40;68.60;;;;;;5006065;28;20116;-72
2022/07/01 07:54:05;;;;;;;2.33;0.82;;;18.40;68.70;;;;;;5000878;28;20724;-72
2022/07/01 07:56:31;;;;;;;2.88;0.90;;;18.40;68.60;;;;;;5030261;28;20448;-72
2022/07/01 07:58:57;;;;;;;0.93;0.70;;;18.40;68.60;;;;;;5021296;28;20443;-72
2022/07/01 08:01:22;;;;;;;1.38;0.70;;;18.40;68.50;;;;;;5018580;28;20037;-71
2022/07/01 08:03:48;;;;;;;1.55;0.80;;;18.40;68.50;;;;;;5033671;28;20087;-72
2022/07/01 08:06:13;;;;;;;2.53;0.90;;;18.40;68.40;;;;;;5042710;28;20037;-72
2022/07/01 08:08:39;;;;;;;2.72;0.60;;;18.40;68.30;;;;;;5048130;28;20056;-72
2022/07/01 08:11:05;;;;;;;4.15;1.10;;;18.50;68.20;;;;;;5029510;28;20029;-71
2022/07/01 08:13:31;;;;;;;4.25;1.00;;;18.50;68.10;;;;;;4973257;28;20122;-72
2022/07/01 08:15:56;;;;;;;3.92;0.90;;;18.50;68.00;;;;;;5014774;28;20614;-72
2022/07/01 08:18:22;;;;;;;2.88;0.88;;;18.50;68.00;;;;;;5014388;28;20054;-73
2022/07/01 08:20:50;;;;;;;0.70;0.68;;;18.40;67.90;;;;;;5013215;28;20041;-72
2022/07/01 08:23:16;;;;;;;2.85;0.93;;;18.40;68.00;;;;;;5031077;28;20093;-71
2022/07/01 08:25:41;;;;;;;2.42;0.68;;;18.40;68.10;;;;;;5044920;28;20443;-71
2022/07/01 08:28:07;;;;;;;3.88;1.00;;;18.40;68.20;;;;;;5028345;28;20551;-71
2022/07/01 08:30:32;;;;;;;4.25;1.20;;;18.40;68.30;;;;;;5029090;28;20032;-72
2022/07/01 08:32:58;;;;;;;0.95;0.70;;;18.40;68.30;;;;;;4992957;28;20044;-72
2022/07/01 08:35:23;;;;;;;0.60;0.60;;;18.30;68.40;;;;;;5030509;28;20040;-71
2022/07/01 08:37:49;;;;;;;1.25;0.60;;;18.30;68.50;;;;;;5030285;28;20037;-74
2022/07/01 08:40:14;;;;;;;1.25;0.63;;;18.30;68.70;;;;;;5014833;28;20029;-71
2022/07/01 08:42:42;;;;;;;3.55;0.70;;;18.30;68.80;;;;;;5019769;28;20071;-71
2022/07/01 08:45:08;;;;;;;0.88;0.60;;;18.20;68.90;;;;;;5027547;28;20115;-70
2022/07/01 08:47:34;;;;;;;1.38;0.70;;;18.20;69.10;;;;;;5021993;28;20045;-72
2022/07/01 08:50:01;;;;;;;1.33;0.80;;;18.20;69.20;;;;;;5040456;28;20452;-71
2022/07/01 08:52:27;;;;;;;1.50;0.52;;;18.20;69.20;;;;;;5039047;28;20041;-71
2022/07/01 08:54:53;;;;;;;0.70;0.63;;;18.20;69.20;;;;;;5032903;28;20074;-72
2022/07/01 08:57:22;;;;;;;1.08;0.57;;;18.20;69.30;;;;;;5050906;28;20028;-68
2022/07/01 09:00:00;;;;;;;2.28;0.50;;;18.20;69.30;;;;;;5052660;28;20040;-69
2022/07/01 09:02:27;;;;;;;1.98;0.63;;;18.30;69.60;;;;;;5008243;28;20094;-68
2022/07/01 09:05:05;;;;;;;0.50;0.43;;;18.40;69.30;;;;;;5041837;28;20028;-68
2022/07/01 09:07:33;;;;;;;0.90;0.50;;;18.40;69.40;;;;;;5023431;28;20563;-67
2022/07/01 09:10:06;;;;;;;1.25;0.60;;;18.40;69.10;;;;;;5027407;28;20046;-68
2022/07/01 09:12:41;;;;;;;1.77;0.63;;;18.40;69.10;;;;;;4992105;28;20052;-67
2022/07/01 09:15:26;;;;;;;1.17;0.50;;;18.40;69.30;;;;;;5026457;28;20035;-68
2022/07/01 09:17:53;;;;;;;2.30;0.57;;;18.40;69.40;;;;;;5006350;28;20107;-68
2022/07/01 09:20:49;;;;;;;1.17;0.45;;;18.40;69.10;;;;;;5022695;28;20475;-69
2022/07/01 09:23:19;;;;;;;1.98;0.73;;;18.40;69.30;;;;;;4983982;28;20123;-67
2022/07/01 09:25:47;;;;;;;0.38;0.38;;;18.40;69.00;;;;;;5050640;28;20042;-69
2022/07/01 09:28:18;;;;;;;1.05;0.80;;;18.50;69.10;;;;;;5020996;28;20040;-67
2022/07/01 09:30:49;;;;;;;1.52;0.73;;;18.50;69.00;;;;;;4988580;28;20675;-67
2022/07/01 09:33:25;;;;;;;0.70;0.70;;;18.60;69.10;;;;;;5023077;28;20067;-67
2022/07/01 09:35:52;;;;;;;1.05;0.50;;;18.60;69.00;;;;;;5009172;28;20036;-68
2022/07/01 09:38:20;;;;;;;0.60;0.60;;;18.50;69.00;;;;;;4989696;28;20031;-68
2022/07/01 09:40:46;;;;;;;0.60;0.60;;;18.60;69.20;;;;;;4984732;28;20037;-68
2022/07/01 09:43:16;;;;;;;1.42;0.60;;;18.60;69.00;;;;;;5033189;28;20108;-69
2022/07/01 09:46:00;;;;;;;1.10;0.50;;;18.60;69.20;;;;;;5004209;28;20040;-67
2022/07/01 09:48:41;;;;;;;1.45;0.60;;;18.60;69.50;;;;;;5024248;28;20063;-68
2022/07/01 09:51:07;;;;;;;0.73;0.40;;;18.50;69.10;;;;;;5006134;28;20032;-68
2022/07/01 09:53:33;;;;;;;0.55;0.52;;;18.50;69.00;;;;;;5030568;28;20040;-68
2022/07/01 09:55:59;;;;;;;1.27;0.57;;;18.60;69.00;;;;;;5028879;28;20105;-69
2022/07/01 09:58:24;;;;;;;0.45;0.38;;;18.60;69.20;;;;;;5024061;28;20025;-69
2022/07/01 10:00:51;;;;;;;0.93;0.50;;;18.60;69.20;;;;;;5034978;28;20041;-68
2022/07/01 10:03:16;;;;;;;0.50;0.50;;;18.60;69.30;;;;;;5030277;28;20077;-68
2022/07/01 10:05:50;;;;;;;0.52;0.30;;;18.60;69.20;;;;;;5030605;28;20033;-69
2022/07/01 10:08:50;;;;;;;0.85;0.50;;;18.60;69.30;;;;;;4994433;28;20688;-68
2022/07/01 10:11:42;;;;;;;1.52;0.50;;;18.70;69.90;;;;;;5015737;28;20044;-68
2022/07/01 10:14:09;;;;;;;0.45;0.40;;;18.70;69.70;;;;;;5018557;28;20515;-70
2022/07/01 10:16:36;;;;;;;2.15;0.60;;;18.70;69.30;;;;;;4991057;28;20426;-70
2022/07/01 10:19:20;;;;;;;1.15;0.38;;;18.70;69.40;;;;;;4973721;28;20406;-70
2022/07/01 10:21:46;;;;;;;0.50;0.50;;;18.70;69.80;;;;;;5013377;28;20095;-71
2022/07/01 10:24:11;;;;;;;1.67;0.50;;;18.80;69.50;;;;;;5022098;28;20446;-71
2022/07/01 10:26:37;;;;;;;0.40;0.40;;;18.80;69.60;;;;;;5048285;28;20037;-73
2022/07/01 10:29:02;;;;;;;0.60;0.40;;;18.80;69.60;;;;;;5003180;28;20702;-71
2022/07/01 10:31:37;;;;;;;2.40;0.52;;;18.80;69.60;;;;;;5031463;28;20571;-71
2022/07/01 10:34:03;;;;;;;0.55;0.35;;;18.80;69.80;;;;;;5022185;28;20108;-70
2022/07/01 10:36:33;;;;;;;3.00;0.50;;;18.80;69.50;;;;;;5034107;28;20132;-71
2022/07/01 10:39:09;;;;;;;1.70;1.05;;;18.80;69.30;;;;;;5037033;28;20706;-70
2022/07/01 10:41:41;;;;;;;0.40;0.38;;;18.80;69.30;;;;;;5012951;28;20030;-72
2022/07/01 10:44:12;;;;;;;;;;;18.80;69.20;;;;;;5038736;28;20047;-71
2022/07/01 10:46:45;;;;;;;0.95;0.40;;;18.80;69.00;;;;;;5034096;28;20015;-70
2022/07/01 10:49:12;;;;;;;0.93;0.50;;;18.90;69.00;;;;;;5034618;28;20032;-71
2022/07/01 10:51:48;;;;;;;0.60;0.50;;;18.80;69.00;;;;;;5013724;28;20034;-70
2022/07/01 10:54:32;;;;;;;0.75;0.75;;;18.80;69.40;;;;;;4985139;28;20391;-70
2022/07/01 10:57:02;;;;;;;1.40;0.55;;;18.80;69.30;;;;;;5042307;28;20040;-71
2022/07/01 10:59:27;;;;;;;0.70;0.60;;;18.80;69.40;;;;;;5022988;28;20520;-70
2022/07/01 11:01:53;;;;;;;0.90;0.70;;;18.80;69.70;;;;;;5036327;28;20040;-71
2022/07/01 11:04:18;;;;;;;1.85;0.68;;;18.70;69.80;;;;;;5033726;28;20049;-71
2022/07/01 11:06:44;;;;;;;1.70;1.38;;;18.70;69.80;;;;;;5039470;28;20033;-70
2022/07/01 11:09:12;;;;;;;2.15;1.85;;;18.70;69.80;;;;;;5024473;28;20029;-72
2022/07/01 11:11:37;;;;;;;3.65;2.35;;;18.80;70.10;;;;;;5020381;28;20056;-70
2022/07/01 11:14:03;;;;;;;1.42;1.08;;;18.80;70.00;;;;;;5014564;28;20024;-71
2022/07/01 11:16:30;;;;;;;2.85;0.68;;;18.90;69.90;;;;;;5035611;28;20071;-70
2022/07/01 11:18:55;;;;;;;0.88;0.75;;;18.90;69.90;;;;;;5034295;28;20025;-70
2022/07/01 11:21:22;;;;;;;1.30;1.00;;;18.90;69.80;;;;;;5020570;28;20463;-71
2022/07/01 11:23:54;;;;;;;1.60;0.50;;;18.80;69.60;;;;;;5020316;28;20090;-71
2022/07/01 11:26:23;;;;;;;1.95;0.80;;;18.80;69.70;;;;;;5026428;28;20119;-70
2022/07/01 11:28:49;;;;;;;1.73;0.68;;;18.80;69.70;;;;;;5021801;28;20040;-70
2022/07/01 11:31:14;;;;;;;0.63;0.60;;;18.80;69.60;;;;;;5047310;28;20181;-71
2022/07/01 11:33:41;;;;;;;1.77;0.70;;;18.80;69.70;;;;;;5029119;28;20121;-70
2022/07/01 11:41:35;;;;;;;2.75;0.50;;;18.60;69.70;;;;;;5027345;28;20047;-72
2022/07/01 11:44:05;;;;;;;2.33;0.52;;;18.60;69.90;;;;;;5026199;28;21961;-72
2022/07/01 11:46:30;;;;;;;2.63;0.68;;;18.60;70.00;;;;;;5035150;28;20036;-71
2022/07/01 11:48:56;;;;;;;1.05;0.70;;;18.60;70.00;;;;;;5021640;28;20033;-72
2022/07/01 11:51:22;;;;;;;1.02;0.60;;;18.60;70.10;;;;;;5036500;28;20441;-72
2022/07/01 11:53:50;;;;;;;2.15;0.70;;;18.50;70.10;;;;;;5032445;28;20047;-70
2022/07/01 11:56:16;;;;;;;1.95;0.80;;;18.60;70.30;;;;;;5027522;28;20078;-74
2022/07/01 11:58:46;;;;;;;3.17;0.70;;;18.60;70.30;;;;;;5029088;28;20055;-73
2022/07/01 12:01:19;;;;;;;1.02;0.70;;;18.70;70.70;;;;;;5012292;28;20028;-74
2022/07/01 12:03:45;;;;;;;1.33;0.85;;;18.80;70.80;;;;;;5028811;28;20055;-73
2022/07/01 12:06:10;;;;;;;1.25;0.95;;;18.90;70.70;;;;;;5032055;28;20032;-74
2022/07/01 12:08:36;;;;;;;1.35;0.88;;;19.00;70.50;;;;;;5011853;28;20044;-74
2022/07/01 12:11:01;;;;;;;2.15;0.88;;;19.10;70.10;;;;;;5017225;28;20138;-72
2022/07/01 12:13:27;;;;;;;2.60;0.70;;;19.20;69.90;;;;;;5016897;28;20029;-72
2022/07/01 12:15:53;;;;;;;3.13;0.80;;;19.30;69.70;;;;;;5014237;28;20045;-71
2022/07/01 12:18:18;;;;;;;4.22;0.90;;;19.40;69.50;;;;;;5030586;28;20029;-73
2022/07/01 12:20:54;;;;;;;1.33;0.90;;;19.40;69.20;;;;;;5034254;28;20044;-73
2022/07/01 12:23:19;;;;;;;3.25;0.70;;;19.40;68.90;;;;;;5024029;28;20086;-72
2022/07/01 12:25:51;;;;;;;3.25;0.80;;;19.40;68.80;;;;;;5021812;28;20033;-72
2022/07/01 12:28:30;;;;;;;1.30;0.80;;;19.40;68.60;;;;;;5032016;28;20116;-73
2022/07/01 12:31:06;;;;;;;1.45;0.70;;;19.50;68.80;;;;;;5029071;28;20044;-72
2022/07/01 12:33:48;;;;;;;0.70;0.70;;;19.60;68.80;;;;;;5029804;28;20059;-72
2022/07/01 12:36:15;;;;;;;1.35;0.60;;;19.70;68.60;;;;;;5010189;28;20029;-71
2022/07/01 12:38:41;;;;;;;1.33;0.50;;;19.90;68.30;;;;;;5044124;28;20037;-72
2022/07/01 12:41:34;;;;;;;0.90;0.60;;;20.20;68.30;;;;;;5022732;28;20036;-72
2022/07/01 12:44:01;;;;;;;1.88;0.93;;;20.50;67.80;;;;;;5040043;28;20033;-75
2022/07/01 12:46:30;;;;;;;1.92;0.63;;;20.70;67.30;;;;;;5035726;28;20037;-76
2022/07/01 12:48:56;;;;;;;0.70;0.60;;;20.90;66.50;;;;;;5015684;28;20870;-74
2022/07/01 12:51:28;;;;;;;3.03;0.70;;;21.00;65.90;;;;;;5019515;28;20044;-75
2022/07/01 12:53:54;;;;;;;1.23;0.60;;;21.00;65.30;;;;;;5014823;28;20509;-71
2022/07/01 12:56:24;;;;;;;1.40;0.60;;;21.10;65.20;;;;;;5030749;28;20532;-72
2022/07/01 12:58:52;;;;;;;5.03;0.47;;;21.10;64.80;;;;;;5008444;28;20037;-72
2022/07/01 13:01:18;;;;;;;1.48;0.82;;;21.10;64.60;;;;;;5034309;28;20032;-72
2022/07/01 13:03:43;;;;;;;1.10;0.60;;;21.20;64.60;;;;;;5023423;28;20040;-72
2022/07/01 13:06:09;;;;;;;2.28;0.77;;;21.50;64.50;;;;;;5015568;28;21376;-72